createdAt,value
2023-08-14T00:00:58.448Z,99377.25
2023-08-14T00:03:25.502Z,99368.00
2023-08-14T00:05:52.384Z,99366.25
2023-08-14T00:08:20.096Z,99363.19
2023-08-14T00:10:46.975Z,99364.00
2023-08-14T00:13:13.900Z,99357.19
2023-08-14T00:15:40.883Z,99351.44
2023-08-14T00:18:07.816Z,99344.81
2023-08-14T00:20:34.694Z,99356.16
2023-08-14T00:23:01.448Z,99354.50
2023-08-14T00:25:28.219Z,99349.38
2023-08-14T00:27:55.413Z,99346.63
2023-08-14T00:30:22.649Z,99342.84
2023-08-14T00:32:49.677Z,99348.88
2023-08-14T00:35:19.721Z,99342.28
2023-08-14T00:37:48.652Z,99340.41
2023-08-14T00:40:16.948Z,99330.78
2023-08-14T00:42:48.993Z,99319.72
2023-08-14T00:45:17.194Z,99317.25
2023-08-14T00:47:48.116Z,99309.25
2023-08-14T00:50:16.126Z,99298.34
2023-08-14T00:52:45.649Z,99298.34
2023-08-14T00:55:17.019Z,99303.09
2023-08-14T00:57:44.438Z,99291.78
2023-08-14T01:00:12.766Z,99297.88
2023-08-14T01:02:40.340Z,99302.97
2023-08-14T01:05:07.532Z,99294.06
2023-08-14T01:07:34.326Z,99293.78
2023-08-14T01:10:03.940Z,99288.53
2023-08-14T01:12:47.088Z,99284.97
2023-08-14T01:15:27.030Z,99282.78
2023-08-14T01:18:00.972Z,99291.38
2023-08-14T01:20:30.482Z,99287.78
2023-08-14T01:23:02.989Z,99288.38
2023-08-14T01:25:34.648Z,99283.47
2023-08-14T01:28:03.062Z,99283.97
2023-08-14T01:30:29.822Z,99292.56
2023-08-14T01:32:56.730Z,99286.00
2023-08-14T01:35:31.369Z,99293.16
2023-08-14T01:38:06.264Z,99283.97
2023-08-14T01:40:40.820Z,99280.41
2023-08-14T01:43:31.487Z,99276.06
2023-08-14T01:45:59.247Z,99275.22
2023-08-14T01:48:27.263Z,99267.81
2023-08-14T01:50:56.592Z,99263.13
2023-08-14T01:53:23.620Z,99267.81
2023-08-14T01:55:50.339Z,99260.59
2023-08-14T01:58:17.548Z,99255.66
2023-08-14T02:00:44.299Z,99250.66
2023-08-14T02:03:11.100Z,99239.59
2023-08-14T02:05:37.988Z,99240.16
2023-08-14T02:08:05.418Z,99237.66
2023-08-14T02:10:32.105Z,99232.66
2023-08-14T02:12:58.835Z,99222.94
2023-08-14T02:15:25.640Z,99217.41
2023-08-14T02:17:52.938Z,99227.97
2023-08-14T02:20:19.741Z,99206.44
2023-08-14T02:22:47.385Z,99210.25
2023-08-14T02:25:14.168Z,99207.81
2023-08-14T02:27:40.830Z,99191.56
2023-08-14T02:30:08.300Z,99190.16
2023-08-14T02:32:35.033Z,99181.56
2023-08-14T02:35:01.980Z,99172.47
2023-08-14T02:37:30.078Z,99172.63
2023-08-14T02:39:56.812Z,99166.53
2023-08-14T02:42:23.953Z,99154.59
2023-08-14T02:44:51.991Z,99154.31
2023-08-14T02:47:19.032Z,99159.84
2023-08-14T02:49:45.854Z,99162.84
2023-08-14T02:52:12.527Z,99165.78
2023-08-14T02:54:39.344Z,99163.03
2023-08-14T02:57:06.137Z,99155.59
2023-08-14T02:59:34.365Z,99158.63
2023-08-14T03:02:01.184Z,99156.16
2023-08-14T03:04:27.948Z,99162.53
2023-08-14T03:06:54.985Z,99164.97
2023-08-14T03:09:21.720Z,99152.19
2023-08-14T03:11:48.416Z,99156.22
2023-08-14T03:14:15.278Z,99147.13
2023-08-14T03:16:42.043Z,99141.06
2023-08-14T03:19:08.827Z,99135.25
2023-08-14T03:21:35.628Z,99141.38
2023-08-14T03:24:03.572Z,99148.44
2023-08-14T03:26:31.362Z,99161.16
2023-08-14T03:28:58.125Z,99157.03
2023-08-14T03:31:24.972Z,99159.50
2023-08-14T03:33:51.716Z,99155.63
2023-08-14T03:36:18.423Z,99144.56
2023-08-14T03:38:45.547Z,99145.59
2023-08-14T03:41:12.447Z,99144.75
2023-08-14T03:43:39.164Z,99152.78
2023-08-14T03:46:05.871Z,99150.53
2023-08-14T03:48:32.606Z,99150.53
2023-08-14T03:50:59.439Z,99142.53
2023-08-14T03:53:26.147Z,99141.09
2023-08-14T03:55:52.839Z,99138.03
2023-08-14T03:58:19.503Z,99151.06
2023-08-14T04:00:48.317Z,99136.91
2023-08-14T04:03:15.612Z,99132.69
2023-08-14T04:05:42.770Z,99128.84
2023-08-14T04:08:09.944Z,99135.19
2023-08-14T04:10:40.440Z,99126.56
2023-08-14T04:13:07.586Z,99123.00
2023-08-14T04:15:34.352Z,99128.13
2023-08-14T04:18:01.229Z,99122.09
2023-08-14T04:20:28.196Z,99124.84
2023-08-14T04:22:54.976Z,99117.63
2023-08-14T04:25:21.721Z,99121.47
2023-08-14T04:27:48.536Z,99124.78
2023-08-14T04:30:16.212Z,99130.88
2023-08-14T04:32:42.960Z,99126.19
2023-08-14T04:35:10.497Z,99126.41
2023-08-14T04:37:37.662Z,99112.66
2023-08-14T04:40:06.305Z,99119.81
2023-08-14T04:42:34.240Z,99119.63
2023-08-14T04:45:02.096Z,99114.84
2023-08-14T04:47:29.234Z,99118.72
2023-08-14T04:49:57.291Z,99107.13
2023-08-14T04:52:24.122Z,99112.91
2023-08-14T04:54:51.268Z,99115.19
2023-08-14T04:57:18.367Z,99115.66
2023-08-14T04:59:45.340Z,99118.13
2023-08-14T05:02:12.066Z,99124.78
2023-08-14T05:04:38.899Z,99127.00
2023-08-14T05:07:05.779Z,99120.88
2023-08-14T05:09:33.728Z,99125.00
2023-08-14T05:12:00.773Z,99121.94
2023-08-14T05:14:28.171Z,99127.28
2023-08-14T05:16:55.008Z,99130.97
2023-08-14T05:19:21.962Z,99125.34
2023-08-14T05:21:48.917Z,99122.34
2023-08-14T05:24:16.706Z,99125.09
2023-08-14T05:26:43.733Z,99118.72
2023-08-14T05:29:10.524Z,99123.16
2023-08-14T05:31:37.371Z,99120.59
2023-08-14T05:34:04.481Z,99123.59
2023-08-14T05:36:31.180Z,99123.06
2023-08-14T05:39:10.876Z,99123.06
2023-08-14T05:41:37.562Z,99120.28
2023-08-14T05:44:07.494Z,99120.38
2023-08-14T05:46:34.395Z,99119.25
2023-08-14T05:49:01.199Z,99121.47
2023-08-14T05:51:27.932Z,99119.56
2023-08-14T05:53:54.712Z,99122.84
2023-08-14T05:56:21.569Z,99118.66
2023-08-14T05:58:48.360Z,99125.31
2023-08-14T06:01:15.872Z,99115.88
2023-08-14T06:03:45.427Z,99123.28
2023-08-14T06:06:12.715Z,99130.97
2023-08-14T06:08:39.451Z,99124.59
2023-08-14T06:11:06.876Z,99121.31
2023-08-14T06:13:58.521Z,99124.59
2023-08-14T06:16:25.277Z,99131.78
2023-08-14T06:18:51.973Z,99123.19
2023-08-14T06:21:18.772Z,99119.06
2023-08-14T06:23:45.992Z,99113.13
2023-08-14T06:26:12.701Z,99116.72
2023-08-14T06:28:39.369Z,99111.69
2023-08-14T06:31:06.070Z,99108.63
2023-08-14T06:33:32.889Z,99112.13
2023-08-14T06:35:59.583Z,99112.44
2023-08-14T06:38:26.295Z,99108.22
2023-08-14T06:40:53.022Z,99106.59
2023-08-14T06:43:21.242Z,99097.69
2023-08-14T06:45:48.816Z,99112.63
2023-08-14T06:48:15.937Z,99099.91
2023-08-14T06:50:42.765Z,99102.69
2023-08-14T06:53:09.510Z,99104.25
2023-08-14T06:55:36.833Z,99107.19
2023-08-14T06:58:03.818Z,99101.97
2023-08-14T07:00:31.103Z,99103.13
2023-08-14T07:02:57.947Z,99092.25
2023-08-14T07:05:24.839Z,99094.50
2023-08-14T07:07:51.528Z,99094.28
2023-08-14T07:10:20.182Z,99098.06
2023-08-14T07:12:47.327Z,99105.78
2023-08-14T07:15:14.046Z,99083.84
2023-08-14T07:17:40.935Z,99080.25
2023-08-14T07:20:11.501Z,99085.88
2023-08-14T07:22:39.000Z,99078.91
2023-08-14T07:25:07.083Z,99079.00
2023-08-14T07:27:33.992Z,99077.28
2023-08-14T07:30:00.922Z,99078.19
2023-08-14T07:32:27.676Z,99072.09
2023-08-14T07:34:54.447Z,99078.88
2023-08-14T07:37:21.267Z,99071.91
2023-08-14T07:39:48.675Z,99071.91
2023-08-14T07:42:15.713Z,99069.00
2023-08-14T07:44:42.543Z,99071.47
2023-08-14T07:47:09.244Z,99070.84
2023-08-14T07:49:36.123Z,99072.78
2023-08-14T07:52:02.890Z,99074.22
2023-08-14T07:54:29.640Z,99073.72
2023-08-14T07:56:56.424Z,99070.63
2023-08-14T07:59:23.339Z,99073.00
2023-08-14T08:01:50.584Z,99074.50
2023-08-14T08:06:47.068Z,99071.41
2023-08-14T08:09:14.956Z,99070.78
2023-08-14T08:11:41.780Z,99075.38
2023-08-14T08:14:08.528Z,99064.97
2023-08-14T08:16:38.470Z,99076.47
2023-08-14T08:19:08.111Z,99069.25
2023-08-14T08:21:34.985Z,99051.81
2023-08-14T08:24:01.714Z,99058.50
2023-08-14T08:26:28.609Z,99060.31
2023-08-14T08:28:55.433Z,99057.75
2023-08-14T08:31:22.295Z,99062.53
2023-08-14T08:33:49.095Z,99064.78
2023-08-14T08:36:19.235Z,99056.97
2023-08-14T08:38:47.152Z,99056.16
2023-08-14T08:41:15.274Z,99056.44
2023-08-14T08:43:42.498Z,99047.44
2023-08-14T08:46:13.916Z,99051.09
2023-08-14T08:48:44.064Z,99049.50
2023-08-14T08:51:11.201Z,99049.66
2023-08-14T08:53:38.626Z,99054.41
2023-08-14T08:56:06.071Z,99037.09
2023-08-14T08:58:32.957Z,99039.38
2023-08-14T09:01:00.879Z,99043.78
2023-08-14T09:03:28.076Z,99038.41
2023-08-14T09:05:55.276Z,99044.59
2023-08-14T09:08:22.228Z,99040.38
2023-08-14T09:10:49.187Z,99041.72
2023-08-14T09:13:16.797Z,99028.03
2023-08-14T09:15:45.025Z,99030.19
2023-08-14T09:18:12.518Z,99034.88
2023-08-14T09:20:40.904Z,99030.47
2023-08-14T09:23:13.663Z,99035.94
2023-08-14T09:25:46.653Z,99023.63
2023-08-14T09:28:13.510Z,99019.38
2023-08-14T09:30:42.021Z,99021.66
2023-08-14T09:33:10.636Z,99019.72
2023-08-14T09:35:39.550Z,99026.75
2023-08-14T09:38:07.113Z,99020.06
2023-08-14T09:40:34.167Z,99021.00
2023-08-14T09:43:01.673Z,99017.13
2023-08-14T09:45:29.918Z,99015.97
2023-08-14T09:48:05.119Z,99010.44
2023-08-14T09:50:33.279Z,98999.22
2023-08-14T09:53:01.976Z,99002.81
2023-08-14T09:55:29.778Z,99002.28
2023-08-14T09:58:00.397Z,98999.81
2023-08-14T10:00:31.755Z,98989.59
2023-08-14T10:03:03.794Z,98984.84
2023-08-14T10:05:31.807Z,98988.47
2023-08-14T10:07:59.907Z,98985.22
2023-08-14T10:10:31.036Z,98983.91
2023-08-14T10:13:07.300Z,98974.91
2023-08-14T10:15:38.493Z,98974.44
2023-08-14T10:18:14.937Z,98973.94
2023-08-14T10:20:45.127Z,98973.63
2023-08-14T10:23:15.035Z,98969.38
2023-08-14T10:25:49.960Z,98968.22
2023-08-14T10:28:17.296Z,98964.47
2023-08-14T10:30:44.977Z,98964.34
2023-08-14T10:33:13.766Z,98946.19
2023-08-14T10:35:57.477Z,98958.28
2023-08-14T10:38:42.929Z,98964.19
2023-08-14T10:41:10.742Z,98949.00
2023-08-14T10:43:37.750Z,98959.94
2023-08-14T10:49:00.922Z,98941.50
2023-08-14T10:51:34.575Z,98949.47
2023-08-14T10:54:19.489Z,98949.19
2023-08-14T10:56:53.178Z,98940.34
2023-08-14T10:59:24.841Z,98938.56
2023-08-14T11:02:12.180Z,98946.38
2023-08-14T11:05:14.334Z,98932.66
2023-08-14T11:07:41.200Z,98928.25
2023-08-14T11:10:18.308Z,98933.00
2023-08-14T11:12:45.207Z,98931.50
2023-08-14T11:15:12.148Z,98925.94
2023-08-14T11:17:39.134Z,98926.94
2023-08-14T11:20:12.088Z,98939.03
2023-08-14T11:22:38.846Z,98914.84
2023-08-14T11:25:06.443Z,98924.34
2023-08-14T11:27:35.605Z,98916.50
2023-08-14T11:30:06.320Z,98917.97
2023-08-14T11:32:39.440Z,98909.50
2023-08-14T11:35:07.693Z,98905.75
2023-08-14T11:37:34.489Z,98902.63
2023-08-14T11:40:12.653Z,98897.88
2023-08-14T11:42:40.709Z,98896.56
2023-08-14T11:45:10.949Z,98895.09
2023-08-14T11:47:48.950Z,98891.19
2023-08-14T11:50:17.279Z,98888.41
2023-08-14T11:52:44.934Z,98872.38
2023-08-14T11:55:12.242Z,98886.25
2023-08-14T11:57:39.680Z,98883.00
2023-08-14T12:00:11.824Z,98877.63
2023-08-14T12:02:43.319Z,98884.81
2023-08-14T12:05:10.338Z,98882.66
2023-08-14T12:07:37.461Z,98882.38
2023-08-14T12:10:08.889Z,98879.88
2023-08-14T12:12:36.624Z,98883.81
2023-08-14T12:15:06.615Z,98889.00
2023-08-14T12:17:34.959Z,98883.97
2023-08-14T12:20:23.722Z,98887.03
2023-08-14T12:22:59.500Z,98890.31
2023-08-14T12:25:30.016Z,98886.19
2023-08-14T12:28:02.939Z,98886.16
2023-08-14T12:30:29.759Z,98889.78
2023-08-14T12:32:58.741Z,98897.28
2023-08-14T12:35:25.501Z,98882.84
2023-08-14T12:37:52.175Z,98884.94
2023-08-14T12:40:20.616Z,98882.09
2023-08-14T12:42:47.409Z,98880.88
2023-08-14T12:45:14.390Z,98866.63
2023-08-14T12:47:42.296Z,98868.63
2023-08-14T12:50:09.093Z,98871.03
2023-08-14T12:52:36.410Z,98867.44
2023-08-14T12:55:06.163Z,98863.75
2023-08-14T12:57:34.047Z,98857.88
2023-08-14T13:00:00.852Z,98851.59
2023-08-14T13:05:00.317Z,98843.78
2023-08-14T13:07:30.720Z,98850.22
2023-08-14T13:09:58.655Z,98850.53
2023-08-14T13:12:25.475Z,98847.84
2023-08-14T13:14:52.647Z,98857.22
2023-08-14T13:17:19.591Z,98854.84
2023-08-14T13:19:46.772Z,98853.91
2023-08-14T13:22:17.274Z,98865.31
2023-08-14T13:24:44.352Z,98857.19
2023-08-14T13:27:11.122Z,98851.38
2023-08-14T13:29:38.851Z,98862.97
2023-08-14T13:32:06.443Z,98865.06
2023-08-14T13:34:33.685Z,98868.66
2023-08-14T13:37:00.659Z,98873.69
2023-08-14T13:39:27.442Z,98869.44
2023-08-14T13:41:54.663Z,98875.13
2023-08-14T13:44:21.430Z,98867.09
2023-08-14T13:46:51.684Z,98872.06
2023-08-14T13:49:18.456Z,98869.25
2023-08-14T13:51:46.078Z,98863.06
2023-08-14T13:54:12.878Z,98859.34
2023-08-14T13:56:39.660Z,98851.31
2023-08-14T13:59:06.543Z,98855.44
2023-08-14T14:01:33.578Z,98851.28
2023-08-14T14:04:00.296Z,98860.00
2023-08-14T14:06:27.093Z,98852.72
2023-08-14T14:08:53.797Z,98863.41
2023-08-14T14:11:21.482Z,98868.53
2023-08-14T14:13:48.144Z,98880.38
2023-08-14T14:16:17.231Z,98881.41
2023-08-14T14:18:44.002Z,98881.47
2023-08-14T14:21:10.637Z,98883.53
2023-08-14T14:23:37.298Z,98891.16
2023-08-14T14:26:03.953Z,98891.00
2023-08-14T14:28:30.851Z,98892.38
2023-08-14T14:30:57.540Z,98888.69
2023-08-14T14:33:24.980Z,98892.38
2023-08-14T14:35:51.625Z,98888.03
2023-08-14T14:38:18.331Z,98880.88
2023-08-14T14:40:44.992Z,98884.91
2023-08-14T14:43:12.725Z,98888.56
2023-08-14T14:45:40.746Z,98896.72
2023-08-14T14:48:07.679Z,98897.00
2023-08-14T14:50:34.368Z,98884.38
2023-08-14T14:53:01.024Z,98900.91
2023-08-14T14:55:29.187Z,98905.78
2023-08-14T14:57:58.578Z,98907.69
2023-08-14T15:00:25.980Z,98912.31
2023-08-14T15:02:52.933Z,98919.25
2023-08-14T15:07:49.336Z,98940.59
2023-08-14T15:10:16.164Z,98931.22
2023-08-14T15:12:42.819Z,98942.25
2023-08-14T15:15:11.051Z,98929.84
2023-08-14T15:17:43.640Z,98933.72
2023-08-14T15:20:13.560Z,98936.41
2023-08-14T15:22:40.958Z,98934.22
2023-08-14T15:25:09.157Z,98941.63
2023-08-14T15:27:36.174Z,98948.81
2023-08-14T15:30:03.637Z,98949.84
2023-08-14T15:32:30.544Z,98960.63
2023-08-14T15:34:57.752Z,98960.84
2023-08-14T15:37:24.869Z,98963.94
2023-08-14T15:39:52.046Z,98958.25
2023-08-14T15:42:18.895Z,98964.50
2023-08-14T15:44:45.611Z,98955.28
2023-08-14T15:47:12.284Z,98973.09
2023-08-14T15:49:39.248Z,98971.72
2023-08-14T15:52:06.501Z,98985.22
2023-08-14T15:54:50.907Z,98986.78
2023-08-14T15:57:20.038Z,98986.97
2023-08-14T15:59:47.269Z,98999.22
2023-08-14T16:02:14.192Z,99005.03
2023-08-14T16:04:41.071Z,99005.09
2023-08-14T16:07:07.802Z,99009.72
2023-08-14T16:09:34.980Z,99016.22
2023-08-14T16:12:01.667Z,99012.53
2023-08-14T16:14:28.449Z,99023.25
2023-08-14T16:16:55.121Z,99019.16
2023-08-14T16:19:22.086Z,99028.69
2023-08-14T16:21:51.913Z,99037.34
2023-08-14T16:24:18.671Z,99042.16
2023-08-14T16:26:45.350Z,99044.72
2023-08-14T16:29:12.719Z,99044.41
2023-08-14T16:31:39.345Z,99044.44
2023-08-14T16:34:06.206Z,99050.72
2023-08-14T16:36:32.840Z,99059.09
2023-08-14T16:38:59.505Z,99051.75
2023-08-14T16:41:26.606Z,99072.81
2023-08-14T16:43:53.392Z,99069.09
2023-08-14T16:46:20.090Z,99084.66
2023-08-14T16:48:47.977Z,99084.66
2023-08-14T16:51:14.690Z,99097.41
2023-08-14T16:53:41.327Z,99091.03
2023-08-14T16:56:08.004Z,99100.06
2023-08-14T16:58:35.056Z,99099.09
2023-08-14T17:01:01.727Z,99086.84
2023-08-14T17:03:28.546Z,99107.63
2023-08-14T17:06:01.834Z,99105.66
2023-08-14T17:08:31.374Z,99112.03
2023-08-14T17:11:02.326Z,99126.75
2023-08-14T17:13:29.319Z,99129.38
2023-08-14T17:15:56.222Z,99140.84
2023-08-14T17:18:23.611Z,99123.50
2023-08-14T17:20:50.622Z,99133.16
2023-08-14T17:23:19.773Z,99139.69
2023-08-14T17:25:57.138Z,99142.81
2023-08-14T17:28:25.519Z,99147.22
2023-08-14T17:30:57.554Z,99147.56
2023-08-14T17:33:24.878Z,99147.56
2023-08-14T17:35:52.363Z,99150.16
2023-08-14T17:38:19.435Z,99159.16
2023-08-14T17:40:50.802Z,99170.97
2023-08-14T17:43:18.253Z,99174.88
2023-08-14T17:45:47.043Z,99170.78
2023-08-14T17:48:14.011Z,99174.06
2023-08-14T17:50:40.692Z,99174.03
2023-08-14T17:53:07.494Z,99185.94
2023-08-14T17:55:34.221Z,99190.53
2023-08-14T17:58:00.909Z,99187.22
2023-08-14T18:00:27.729Z,99197.66
2023-08-14T18:02:54.490Z,99184.09
2023-08-14T18:05:21.271Z,99186.69
2023-08-14T18:07:48.004Z,99188.31
2023-08-14T18:10:14.744Z,99180.50
2023-08-14T18:12:41.637Z,99197.31
2023-08-14T18:15:09.406Z,99198.13
2023-08-14T18:17:36.537Z,99190.75
2023-08-14T18:20:04.246Z,99205.50
2023-08-14T18:22:31.791Z,99204.66
2023-08-14T18:24:58.673Z,99207.50
2023-08-14T18:27:25.685Z,99221.16
2023-08-14T18:29:52.357Z,99224.56
2023-08-14T18:32:19.297Z,99229.50
2023-08-14T18:34:45.966Z,99228.16
2023-08-14T18:37:12.594Z,99234.06
2023-08-14T18:39:39.316Z,99241.06
2023-08-14T18:42:06.667Z,99243.22
2023-08-14T18:44:33.346Z,99247.53
2023-08-14T18:47:00.151Z,99250.81
2023-08-14T18:49:26.975Z,99253.41
2023-08-14T18:51:53.836Z,99259.28
2023-08-14T18:54:21.473Z,99254.97
2023-08-14T18:56:48.346Z,99264.44
2023-08-14T18:59:15.659Z,99275.91
2023-08-14T19:01:42.423Z,99281.19
2023-08-14T19:04:09.442Z,99280.28
2023-08-14T19:06:36.324Z,99287.72
2023-08-14T19:09:03.045Z,99292.56
2023-08-14T19:11:29.776Z,99295.56
2023-08-14T19:13:56.487Z,99293.88
2023-08-14T19:16:24.600Z,99309.81
2023-08-14T19:18:54.678Z,99311.06
2023-08-14T19:24:29.652Z,99320.81
2023-08-14T19:26:57.977Z,99313.63
2023-08-14T19:29:24.994Z,99318.56
2023-08-14T19:31:51.701Z,99324.34
2023-08-14T19:34:18.436Z,99334.50
2023-08-14T19:36:45.081Z,99341.91
2023-08-14T19:39:11.933Z,99341.78
2023-08-14T19:41:38.793Z,99349.00
2023-08-14T19:44:06.417Z,99350.09
2023-08-14T19:46:33.358Z,99350.09
2023-08-14T19:49:00.020Z,99357.28
2023-08-14T19:51:26.701Z,99360.97
2023-08-14T19:53:53.477Z,99358.22
2023-08-14T19:56:21.206Z,99361.34
2023-08-14T19:58:47.904Z,99369.16
2023-08-14T20:01:14.531Z,99365.34
2023-08-14T20:03:46.396Z,99365.53
2023-08-14T20:06:14.079Z,99364.41
2023-08-14T20:08:40.886Z,99367.53
2023-08-14T20:11:07.773Z,99363.44
2023-08-14T20:13:34.521Z,99360.97
2023-08-14T20:16:01.801Z,99364.13
2023-08-14T20:18:30.352Z,99375.38
2023-08-14T20:20:57.235Z,99385.41
2023-08-14T20:23:23.946Z,99376.34
2023-08-14T20:25:52.396Z,99381.66
2023-08-14T20:28:19.260Z,99380.63
2023-08-14T20:30:45.993Z,99388.44
2023-08-14T20:33:14.828Z,99392.44
2023-08-14T20:35:42.678Z,99387.78
2023-08-14T20:38:09.681Z,99392.00
2023-08-14T20:40:36.583Z,99386.84
2023-08-14T20:43:12.605Z,99392.72
2023-08-14T20:45:41.238Z,99397.81
2023-08-14T20:48:08.913Z,99392.63
2023-08-14T20:50:37.104Z,99389.03
2023-08-14T20:53:05.169Z,99395.19
2023-08-14T20:55:37.622Z,99394.94
2023-08-14T20:58:04.494Z,99391.13
2023-08-14T21:00:31.407Z,99401.63
2023-08-14T21:02:58.277Z,99402.47
2023-08-14T21:05:25.395Z,99406.72
2023-08-14T21:07:54.885Z,99405.41
2023-08-14T21:10:21.744Z,99403.81
2023-08-14T21:12:48.496Z,99403.69
2023-08-14T21:15:15.215Z,99410.09
2023-08-14T21:17:41.857Z,99413.69
2023-08-14T21:20:09.165Z,99412.31
2023-08-14T21:22:35.834Z,99414.25
2023-08-14T21:25:02.734Z,99418.19
2023-08-14T21:27:31.046Z,99410.78
2023-08-14T21:29:59.895Z,99416.56
2023-08-14T21:32:26.798Z,99416.88
2023-08-14T21:34:53.565Z,99426.03
2023-08-14T21:37:20.422Z,99432.97
2023-08-14T21:39:47.422Z,99425.25
2023-08-14T21:42:14.139Z,99428.03
2023-08-14T21:44:41.071Z,99428.59
2023-08-14T21:47:07.718Z,99428.59
2023-08-14T21:49:35.400Z,99418.97
2023-08-14T21:52:02.135Z,99423.69
2023-08-14T21:54:31.014Z,99424.78
2023-08-14T21:56:59.152Z,99430.63
2023-08-14T21:59:25.836Z,99434.25
2023-08-14T22:01:52.847Z,99432.06
2023-08-14T22:04:19.529Z,99437.06
2023-08-14T22:06:46.203Z,99453.88
2023-08-14T22:09:12.955Z,99444.31
2023-08-14T22:11:39.740Z,99451.53
2023-08-14T22:14:06.659Z,99440.50
2023-08-14T22:16:33.453Z,99440.81
2023-08-14T22:19:00.171Z,99445.53
2023-08-14T22:21:26.808Z,99432.06
2023-08-14T22:23:53.427Z,99442.25
2023-08-14T22:26:20.436Z,99446.69
2023-08-14T22:28:47.044Z,99440.91
2023-08-14T22:31:16.547Z,99444.22
2023-08-14T22:33:43.780Z,99444.78
2023-08-14T22:36:10.881Z,99444.25
2023-08-14T22:38:37.970Z,99443.19
2023-08-14T22:41:04.727Z,99458.34
2023-08-14T22:43:31.390Z,99455.59
2023-08-14T22:45:58.026Z,99458.38
2023-08-14T22:48:24.789Z,99457.56
2023-08-14T22:50:51.632Z,99463.09
2023-08-14T22:53:22.936Z,99471.66
2023-08-14T22:55:49.848Z,99464.78
2023-08-14T22:58:16.672Z,99471.44
2023-08-14T23:00:43.457Z,99466.22
2023-08-14T23:03:10.216Z,99466.22
2023-08-14T23:05:36.995Z,99470.09
2023-08-14T23:08:03.837Z,99470.91
2023-08-14T23:10:30.660Z,99463.75
2023-08-14T23:12:57.339Z,99470.06
2023-08-14T23:15:24.290Z,99472.53
2023-08-14T23:17:51.079Z,99472.75
2023-08-14T23:20:17.854Z,99467.53
2023-08-14T23:22:44.652Z,99475.00
2023-08-14T23:25:11.905Z,99473.09
2023-08-14T23:27:38.587Z,99483.81
2023-08-14T23:30:05.735Z,99478.56
2023-08-14T23:32:32.434Z,99487.41
2023-08-14T23:34:59.869Z,99480.81
2023-08-14T23:37:26.881Z,99480.00
2023-08-14T23:39:53.578Z,99484.94
2023-08-14T23:42:20.230Z,99488.84
2023-08-14T23:44:47.052Z,99476.69
2023-08-14T23:47:13.676Z,99479.47
2023-08-14T23:49:42.782Z,99473.69
2023-08-14T23:52:09.948Z,99476.13
2023-08-14T23:54:36.912Z,99475.88
2023-08-14T23:57:03.780Z,99479.19
2023-08-14T23:59:31.817Z,99472.59
